createdAt,value
2023-04-20T00:00:19.664Z,1020.2
2023-04-20T00:15:19.139Z,1020
2023-04-20T00:30:19.597Z,1019.8
2023-04-20T00:45:19.217Z,1019.7
2023-04-20T01:00:21.903Z,1019.5
2023-04-20T01:15:19.571Z,1019.4
2023-04-20T01:30:18.986Z,1019.3
2023-04-20T01:45:19.235Z,1019.1
2023-04-20T02:00:18.882Z,1019.2
2023-04-20T02:15:19.107Z,1019.1
2023-04-20T02:30:19.195Z,1018.9
2023-04-20T02:45:19.184Z,1018.8
2023-04-20T03:00:19.261Z,1018.7
2023-04-20T03:15:19.410Z,1018.4
2023-04-20T03:30:18.791Z,1018.4
2023-04-20T03:45:19.108Z,1018.4
2023-04-20T04:03:11.575Z,1018.5
2023-04-20T04:15:18.847Z,1018.5
2023-04-20T04:30:19.593Z,1018.3
2023-04-20T04:45:19.167Z,1018.4
2023-04-20T05:00:19.987Z,1018.5
2023-04-20T05:15:24.678Z,1018.7
2023-04-20T05:30:22.385Z,1018.8
2023-04-20T05:45:18.585Z,1018.9
2023-04-20T06:00:19.269Z,1018.9
2023-04-20T06:15:19.246Z,1018.8
2023-04-20T06:30:20.434Z,1018.8
2023-04-20T06:45:19.335Z,1018.8
2023-04-20T07:00:19.086Z,1018.8
2023-04-20T07:15:20.674Z,1018.9
2023-04-20T07:30:19.001Z,1019.1
2023-04-20T07:45:19.810Z,1019.1
2023-04-20T08:00:19.985Z,1019.1
2023-04-20T08:15:20.047Z,1019.2
2023-04-20T08:30:19.382Z,1019.3
2023-04-20T08:45:19.622Z,1019.6
2023-04-20T09:00:19.179Z,1019.6
2023-04-20T09:15:19.659Z,1019.5
2023-04-20T09:30:19.530Z,1019.4
2023-04-20T09:45:18.954Z,1019.6
2023-04-20T10:00:19.179Z,1019.6
2023-04-20T10:15:19.320Z,1019.6
2023-04-20T10:30:19.402Z,1019.4
2023-04-20T10:45:19.136Z,1019.2
2023-04-20T11:00:20.004Z,1019.4
2023-04-20T11:15:19.100Z,1019.5
2023-04-20T11:30:19.301Z,1019.3
2023-04-20T11:45:19.640Z,1019.3
2023-04-20T12:00:19.229Z,1019.3
2023-04-20T12:15:20.105Z,1019.3
2023-04-20T12:30:19.071Z,1019.4
2023-04-20T12:45:19.588Z,1019.3
2023-04-20T13:00:19.209Z,1019.3
2023-04-20T13:30:20.302Z,1018.9
2023-04-20T13:45:19.642Z,1018.8
2023-04-20T14:00:19.664Z,1018.6
2023-04-20T14:15:28.913Z,1018.4
2023-04-20T14:30:19.569Z,1018.3
2023-04-20T14:45:18.884Z,1018.1
2023-04-20T15:00:19.712Z,1017.9
2023-04-20T15:15:19.776Z,1017.7
2023-04-20T15:30:19.010Z,1017.6
2023-04-20T15:45:19.016Z,1017.5
2023-04-20T16:00:19.557Z,1017.5
2023-04-20T16:15:18.913Z,1017.5
2023-04-20T16:30:19.168Z,1017.5
2023-04-20T16:45:19.680Z,1017.5
2023-04-20T17:00:19.690Z,1017.5
2023-04-20T17:15:20.365Z,1017.5
2023-04-20T17:30:19.411Z,1017.5
2023-04-20T17:45:19.403Z,1017.4
2023-04-20T18:00:19.212Z,1017.4
2023-04-20T18:15:19.205Z,1017.3
2023-04-20T18:30:19.504Z,1017.3
2023-04-20T18:45:19.138Z,1017.5
2023-04-20T19:00:19.265Z,1017.6
2023-04-20T19:15:19.742Z,1017.6
2023-04-20T19:30:19.269Z,1017.5
2023-04-20T19:45:19.169Z,1017.6
2023-04-20T20:00:19.742Z,1017.7
2023-04-20T20:15:20.254Z,1017.8
2023-04-20T20:30:21.518Z,1017.8
2023-04-20T20:45:19.461Z,1017.9
2023-04-20T21:00:20.549Z,1017.8
2023-04-20T21:15:19.517Z,1017.9
2023-04-20T21:30:23.260Z,1017.9
2023-04-20T21:45:18.901Z,1017.9
2023-04-20T22:00:20.206Z,1017.9
2023-04-20T22:15:19.658Z,1017.9
2023-04-20T22:30:18.910Z,1018
2023-04-20T22:45:18.828Z,1017.9
2023-04-20T23:00:19.070Z,1017.9
2023-04-20T23:15:19.203Z,1017.8
2023-04-20T23:30:18.968Z,1017.9
2023-04-20T23:45:19.698Z,1017.8
